^^
Franklin Riverside ( IFRANKLI3 Nearby PWS ) Historical Data
 
Daily Summary for April 22, 2018 Units:  Metric    English   Both
« Previous Day
Next Day »
Daily Weekly Monthly Yearly Custom
  Current: High: Low: Average:
Temperature: 23.0 °C 23.4 °C 9.1 °C 12.9 °C
Dew Point: 14.1 °C 14.1 °C 8.9 °C 10.5 °C
Humidity: 57% 99% 49% 87%
Wind Speed: 0.3km/h 11.6km/h 0.0km/h 2km/h
Wind Gust: 4.0km/h 15.8km/h - -
WindWNW - - West
Pressure: 1020.2 hPa 1022.9 hPa 1019.9 hPa -
Precipitation: 0.0 mm      
Historical Graphs
 
 
Tabular Data for April 22, 2018
Time Temperature Dew Point Pressure Wind Wind Speed Wind Gust Humidity Rainfall Rate (Hourly) solar
00:00 10.7 °C 10.4 °C 1021.9 hPa WNW 3.2 km/h 4.0 km/h 98% 0.0 mm 0.00 W/m2
00:05 10.8 °C 10.4 °C 1021.6 hPa WNW 0.6 km/h 4.0 km/h 97% 0.0 mm 0.00 W/m2
00:11 10.9 °C 10.5 °C 1021.9 hPa NNW 0.3 km/h 4.0 km/h 97% 0.0 mm 0.00 W/m2
00:16 11.0 °C 10.6 °C 1021.6 hPa NNW 0.3 km/h 4.0 km/h 97% 0.0 mm 0.00 W/m2
00:21 11.0 °C 10.6 °C 1021.6 hPa Calm     97% 0.0 mm 0.00 W/m2
00:26 11.1 °C 10.7 °C 1021.9 hPa Calm     97% 0.0 mm 0.00 W/m2
00:31 11.1 °C 10.7 °C 1021.6 hPa Calm     97% 0.0 mm 0.00 W/m2
00:36 11.2 °C 10.6 °C 1021.6 hPa WNW 5.8 km/h 7.9 km/h 96% 0.0 mm 0.00 W/m2
00:41 11.2 °C 10.6 °C 1021.6 hPa Calm     96% 0.0 mm 0.00 W/m2
00:46 11.2 °C 10.6 °C 1021.6 hPa Calm     96% 0.0 mm 0.00 W/m2
00:51 11.2 °C 10.8 °C 1021.6 hPa Calm     97% 0.0 mm 0.00 W/m2
00:56 11.1 °C 10.7 °C 1021.6 hPa Calm     97% 0.0 mm 0.00 W/m2
01:01 11.1 °C 10.7 °C 1021.6 hPa NW 4.3 km/h 7.9 km/h 97% 0.0 mm 0.00 W/m2
01:06 11.0 °C 10.6 °C 1021.6 hPa Calm     97% 0.0 mm 0.00 W/m2
01:11 11.0 °C 10.6 °C 1021.6 hPa Calm     97% 0.0 mm 0.00 W/m2
01:16 11.0 °C 10.6 °C 1021.6 hPa WNW 1.8 km/h 4.0 km/h 97% 0.0 mm 0.00 W/m2
01:27 11.0 °C 10.6 °C 1021.6 hPa NW 0.6 km/h 4.0 km/h 97% 0.0 mm 0.00 W/m2
01:32 11.1 °C 10.7 °C 1021.6 hPa NNW 0.3 km/h 4.0 km/h 97% 0.0 mm 0.00 W/m2
01:37 11.1 °C 10.7 °C 1021.6 hPa North 0.3 km/h 4.0 km/h 97% 0.0 mm 0.00 W/m2
01:42 11.0 °C 10.6 °C 1021.6 hPa NW 1.4 km/h 4.0 km/h 97% 0.0 mm 0.00 W/m2
01:47 11.0 °C 10.6 °C 1021.6 hPa Calm     97% 0.0 mm 0.00 W/m2
01:52 11.0 °C 10.6 °C 1021.6 hPa WNW 0.6 km/h 4.0 km/h 97% 0.0 mm 0.00 W/m2
01:57 11.0 °C 10.6 °C 1021.2 hPa WNW 0.3 km/h 4.0 km/h 97% 0.0 mm 0.00 W/m2
02:02 10.9 °C 10.5 °C 1021.6 hPa North 0.6 km/h 4.0 km/h 97% 0.0 mm 0.00 W/m2
02:07 10.9 °C 10.5 °C 1021.6 hPa Calm     97% 0.0 mm 0.00 W/m2
02:12 11.0 °C 10.6 °C 1021.2 hPa WNW 0.3 km/h 4.0 km/h 97% 0.0 mm 0.00 W/m2
02:17 11.1 °C 10.5 °C 1021.6 hPa WNW 4.3 km/h 7.9 km/h 96% 0.0 mm 0.00 W/m2
02:22 11.2 °C 10.6 °C 1021.6 hPa NNW 1.8 km/h 4.0 km/h 96% 0.0 mm 0.00 W/m2
02:27 11.3 °C 10.7 °C 1021.2 hPa Calm     96% 0.0 mm 0.00 W/m2
02:32 11.3 °C 10.5 °C 1021.2 hPa Calm     95% 0.0 mm 0.00 W/m2
02:37 11.4 °C 10.6 °C 1021.2 hPa WNW 1.8 km/h 4.0 km/h 95% 0.0 mm 0.00 W/m2
02:43 11.4 °C 10.8 °C 1021.2 hPa NW 2.9 km/h 4.0 km/h 96% 0.0 mm 0.00 W/m2
02:48 11.3 °C 10.7 °C 1021.2 hPa NW 1.4 km/h 4.0 km/h 96% 0.0 mm 0.00 W/m2
02:53 11.3 °C 10.7 °C 1021.2 hPa WNW 4.0 km/h 7.9 km/h 96% 0.0 mm 0.00 W/m2
02:58 11.2 °C 10.6 °C 1021.2 hPa NW 7.2 km/h 11.9 km/h 96% 0.0 mm 0.00 W/m2
03:03 11.2 °C 10.6 °C 1020.9 hPa WNW 0.3 km/h 4.0 km/h 96% 0.0 mm 0.00 W/m2
03:08 11.2 °C 10.4 °C 1021.2 hPa NW 1.8 km/h 4.0 km/h 95% 0.0 mm 0.00 W/m2
03:13 11.2 °C 10.4 °C 1020.9 hPa NW 5.5 km/h 7.9 km/h 95% 0.0 mm 0.00 W/m2
03:18 11.2 °C 10.4 °C 1021.2 hPa Calm     95% 0.0 mm 0.00 W/m2
03:23 11.2 °C 10.6 °C 1021.2 hPa Calm     96% 0.0 mm 0.00 W/m2
03:28 11.2 °C 10.6 °C 1021.2 hPa Calm     96% 0.0 mm 0.00 W/m2
03:33 11.1 °C 10.5 °C 1020.9 hPa NW 0.3 km/h 4.0 km/h 96% 0.0 mm 0.00 W/m2
03:38 11.0 °C 10.6 °C 1020.9 hPa NW 0.6 km/h 4.0 km/h 97% 0.0 mm 0.00 W/m2
03:43 11.0 °C 10.6 °C 1021.2 hPa WNW 5.5 km/h 7.9 km/h 97% 0.0 mm 0.00 W/m2
03:48 10.9 °C 10.5 °C 1021.2 hPa NW 2.1 km/h 4.0 km/h 97% 0.0 mm 0.00 W/m2
03:53 10.8 °C 10.4 °C 1021.2 hPa NW 2.9 km/h 4.0 km/h 97% 0.0 mm 0.00 W/m2
03:59 10.8 °C 10.4 °C 1021.2 hPa NW 1.4 km/h 4.0 km/h 97% 0.0 mm 0.00 W/m2
04:04 10.7 °C 10.3 °C 1021.2 hPa NNW 4.0 km/h 7.9 km/h 97% 0.0 mm 0.00 W/m2
04:14 10.6 °C 10.2 °C 1021.2 hPa WNW 1.4 km/h 4.0 km/h 97% 0.0 mm 0.00 W/m2
04:19 10.6 °C 10.2 °C 1021.2 hPa NW 0.6 km/h 4.0 km/h 97% 0.0 mm 0.00 W/m2
04:24 10.6 °C 10.2 °C 1021.6 hPa NW 0.3 km/h 4.0 km/h 97% 0.0 mm 0.00 W/m2
04:29 10.6 °C 10.2 °C 1021.2 hPa WNW 2.1 km/h 7.9 km/h 97% 0.0 mm 0.00 W/m2
04:34 10.6 °C 10.2 °C 1021.2 hPa NW 0.3 km/h 4.0 km/h 97% 0.0 mm 0.00 W/m2
04:39 10.5 °C 10.1 °C 1021.2 hPa NW 6.4 km/h 7.9 km/h 97% 0.0 mm 0.00 W/m2
04:44 10.5 °C 10.1 °C 1021.2 hPa NNW 1.8 km/h 4.0 km/h 97% 0.0 mm 0.00 W/m2
04:49 10.4 °C 10.0 °C 1021.2 hPa West 0.3 km/h 4.0 km/h 97% 0.0 mm 0.00 W/m2
04:54 10.4 °C 10.0 °C 1021.6 hPa NNW 0.3 km/h 4.0 km/h 97% 0.0 mm 0.00 W/m2
04:59 10.3 °C 9.9 °C 1021.6 hPa Calm     97% 0.0 mm 0.00 W/m2
05:04 10.2 °C 9.9 °C 1021.6 hPa Calm     98% 0.0 mm 0.00 W/m2
05:09 10.1 °C 9.8 °C 1021.6 hPa North 0.3 km/h 4.0 km/h 98% 0.0 mm 0.00 W/m2
05:15 10.1 °C 9.8 °C 1021.6 hPa Calm     98% 0.0 mm 0.00 W/m2
05:20 10.1 °C 9.8 °C 1021.6 hPa Calm     98% 0.0 mm 0.00 W/m2
05:25 10.0 °C 9.7 °C 1021.9 hPa NNW 3.2 km/h 7.9 km/h 98% 0.0 mm 0.00 W/m2
05:30 10.1 °C 9.8 °C 1021.9 hPa WNW 2.9 km/h 4.0 km/h 98% 0.0 mm 0.00 W/m2
05:35 10.1 °C 9.8 °C 1021.9 hPa NW 4.0 km/h 4.0 km/h 98% 0.0 mm 0.00 W/m2
05:40 9.7 °C 9.4 °C 1021.9 hPa NW 2.9 km/h 4.0 km/h 98% 0.0 mm 0.00 W/m2
05:45 9.6 °C 9.3 °C 1021.9 hPa WNW 2.9 km/h 4.0 km/h 98% 0.0 mm 0.00 W/m2
05:50 9.6 °C 9.3 °C 1022.2 hPa Calm     98% 0.0 mm 0.00 W/m2
05:55 9.6 °C 9.3 °C 1022.2 hPa WNW 2.1 km/h 4.0 km/h 98% 0.0 mm 0.00 W/m2
06:00 9.5 °C 9.4 °C 1022.2 hPa NW 3.2 km/h 7.9 km/h 99% 0.0 mm 0.00 W/m2
06:05 9.6 °C 9.3 °C 1022.2 hPa Calm     98% 0.0 mm 0.00 W/m2
06:10 9.6 °C 9.3 °C 1022.2 hPa NW 4.3 km/h 7.9 km/h 98% 0.0 mm 0.00 W/m2
06:15 9.6 °C 9.3 °C 1022.2 hPa North 0.3 km/h 4.0 km/h 98% 0.0 mm 0.00 W/m2
06:20 9.6 °C 9.3 °C 1022.2 hPa North 0.6 km/h 4.0 km/h 98% 0.0 mm 0.00 W/m2
06:25 9.6 °C 9.3 °C 1022.2 hPa WNW 4.7 km/h 7.9 km/h 98% 0.0 mm 0.00 W/m2
06:31 9.5 °C 9.4 °C 1022.2 hPa NW 2.1 km/h 4.0 km/h 99% 0.0 mm 0.00 W/m2
06:36 9.4 °C 9.3 °C 1022.2 hPa NW 1.8 km/h 4.0 km/h 99% 0.0 mm 0.00 W/m2
06:41 9.3 °C 9.2 °C 1022.2 hPa WNW 0.6 km/h 4.0 km/h 99% 0.0 mm 0.00 W/m2
06:46 9.3 °C 9.2 °C 1022.2 hPa WNW 4.7 km/h 7.9 km/h 99% 0.0 mm 0.00 W/m2
06:51 9.3 °C 9.2 °C 1022.6 hPa WNW 0.6 km/h 4.0 km/h 99% 0.0 mm 0.00 W/m2
06:56 9.2 °C 9.1 °C 1022.6 hPa WNW 0.6 km/h 4.0 km/h 99% 0.0 mm 0.00 W/m2
07:01 9.2 °C 9.1 °C 1022.6 hPa Calm     99% 0.0 mm 2.85 W/m2
07:06 9.2 °C 9.1 °C 1022.6 hPa NW 1.4 km/h 4.0 km/h 99% 0.0 mm 6.86 W/m2
07:11 9.2 °C 9.1 °C 1022.6 hPa WNW 0.6 km/h 4.0 km/h 99% 0.0 mm 12.52 W/m2
07:16 9.1 °C 9.0 °C 1022.6 hPa WNW 6.4 km/h 7.9 km/h 99% 0.0 mm 22.62 W/m2
07:21 9.1 °C 9.0 °C 1022.6 hPa WNW 6.4 km/h 7.9 km/h 99% 0.0 mm 26.85 W/m2
07:26 9.1 °C 9.0 °C 1022.6 hPa NNE 0.3 km/h 4.0 km/h 99% 0.0 mm 31.01 W/m2
07:31 9.1 °C 9.0 °C 1022.6 hPa West 1.8 km/h 4.0 km/h 99% 0.0 mm 35.03 W/m2
07:36 9.1 °C 9.0 °C 1022.6 hPa Calm     99% 0.0 mm 38.93 W/m2
07:41 9.2 °C 8.9 °C 1022.6 hPa NW 7.2 km/h 11.9 km/h 98% 0.0 mm 42.55 W/m2
07:47 9.2 °C 8.9 °C 1022.9 hPa North 0.6 km/h 4.0 km/h 98% 0.0 mm 45.70 W/m2
07:52 9.3 °C 9.0 °C 1022.6 hPa North 1.4 km/h 4.0 km/h 98% 0.0 mm 49.12 W/m2
07:57 9.4 °C 9.0 °C 1022.6 hPa NW 9.7 km/h 15.8 km/h 97% 0.0 mm 51.87 W/m2
08:02 9.5 °C 9.1 °C 1022.6 hPa NW 2.1 km/h 4.0 km/h 97% 0.0 mm 54.42 W/m2
08:07 9.5 °C 9.1 °C 1022.6 hPa NW 4.0 km/h 7.9 km/h 97% 0.0 mm 56.03 W/m2
08:12 9.6 °C 9.0 °C 1022.6 hPa North 5.8 km/h 7.9 km/h 96% 0.0 mm 58.38 W/m2
08:17 9.8 °C 9.0 °C 1022.6 hPa NW 8.2 km/h 11.9 km/h 95% 0.0 mm 60.33 W/m2
08:22 10.0 °C 9.1 °C 1022.6 hPa WNW 1.4 km/h 4.0 km/h 94% 0.0 mm 61.00 W/m2
08:27 10.2 °C 9.3 °C 1022.6 hPa NW 4.7 km/h 7.9 km/h 94% 0.0 mm 62.74 W/m2
08:32 10.5 °C 9.4 °C 1022.6 hPa NW 4.3 km/h 7.9 km/h 93% 0.0 mm 64.08 W/m2
08:37 10.8 °C 9.6 °C 1022.6 hPa NW 2.9 km/h 4.0 km/h 92% 0.0 mm 68.78 W/m2
08:42 11.2 °C 9.6 °C 1022.9 hPa WNW 5.8 km/h 7.9 km/h 90% 0.0 mm 68.78 W/m2
08:47 11.5 °C 9.9 °C 1022.9 hPa NNW 7.2 km/h 11.9 km/h 90% 0.0 mm 72.07 W/m2
08:52 11.8 °C 10.1 °C 1022.9 hPa NW 4.7 km/h 7.9 km/h 89% 0.0 mm 69.72 W/m2
08:57 12.1 °C 10.2 °C 1022.6 hPa North 2.9 km/h 7.9 km/h 88% 0.0 mm 70.86 W/m2
09:03 12.4 °C 10.3 °C 1022.6 hPa North 4.0 km/h 7.9 km/h 87% 0.0 mm 72.87 W/m2
09:08 12.6 °C 10.3 °C 1022.6 hPa NNW 6.4 km/h 11.9 km/h 86% 0.0 mm 74.15 W/m2
09:13 12.8 °C 10.5 °C 1022.6 hPa NNW 0.3 km/h 4.0 km/h 86% 0.0 mm 76.29 W/m2
09:18 13.1 °C 10.5 °C 1022.6 hPa NW 8.2 km/h 15.8 km/h 84% 0.0 mm 78.37 W/m2
09:23 13.3 °C 10.5 °C 1022.2 hPa WNW 3.2 km/h 4.0 km/h 83% 0.0 mm 90.17 W/m2
09:28 13.6 °C 10.6 °C 1022.2 hPa West 4.7 km/h 11.9 km/h 82% 0.0 mm 87.47 W/m2
09:33 13.9 °C 10.5 °C 1022.2 hPa NNE 2.1 km/h 4.0 km/h 80% 0.0 mm 110.05 W/m2
09:38 14.3 °C 10.7 °C 1022.2 hPa Calm     79% 0.0 mm 114.78 W/m2
09:43 14.7 °C 10.5 °C 1022.2 hPa NW 11.6 km/h 15.8 km/h 76% 0.0 mm 120.09 W/m2
09:48 15.1 °C 10.9 °C 1022.2 hPa NNE 0.6 km/h 4.0 km/h 76% 0.0 mm 125.80 W/m2
09:53 15.5 °C 11.1 °C 1022.2 hPa Calm     75% 0.0 mm 133.67 W/m2
09:58 15.8 °C 11.0 °C 1022.2 hPa NW 8.2 km/h 11.9 km/h 73% 0.0 mm 143.88 W/m2
10:03 16.2 °C 11.0 °C 1022.2 hPa NW 9.0 km/h 11.9 km/h 71% 0.0 mm 136.42 W/m2
10:08 16.4 °C 11.1 °C 1022.2 hPa North 2.9 km/h 4.0 km/h 71% 0.0 mm 128.81 W/m2
10:13 16.6 °C 11.8 °C 1022.2 hPa West 3.2 km/h 4.0 km/h 73% 0.0 mm 136.78 W/m2
10:19 16.8 °C 11.3 °C 1021.9 hPa NW 1.4 km/h 4.0 km/h 70% 0.0 mm 165.66 W/m2
10:24 17.1 °C 10.9 °C 1021.9 hPa Calm     67% 0.0 mm 169.75 W/m2
10:29 17.4 °C 11.5 °C 1022.2 hPa Calm     68% 0.0 mm 147.93 W/m2
10:34 17.7 °C 11.3 °C 1021.9 hPa Calm     66% 0.0 mm 177.40 W/m2
10:39 18.2 °C 10.8 °C 1021.9 hPa Calm     62% 0.0 mm 174.88 W/m2
10:44 18.7 °C 10.8 °C 1021.9 hPa NW 4.0 km/h 4.0 km/h 60% 0.0 mm 185.41 W/m2
10:49 19.2 °C 11.5 °C 1021.6 hPa Calm     61% 0.0 mm 186.35 W/m2
10:54 19.6 °C 11.6 °C 1021.6 hPa Calm     60% 0.0 mm 191.62 W/m2
10:59 20.0 °C 11.8 °C 1021.6 hPa NW 0.6 km/h 4.0 km/h 59% 0.0 mm 197.15 W/m2
11:04 20.4 °C 11.9 °C 1021.6 hPa Calm     58% 0.0 mm 204.30 W/m2
11:09 20.7 °C 11.9 °C 1021.6 hPa Calm     57% 0.0 mm 209.79 W/m2
11:14 21.1 °C 12.0 °C 1021.6 hPa Calm     56% 0.0 mm 215.87 W/m2
11:19 21.4 °C 12.8 °C 1021.2 hPa Calm     58% 0.0 mm 227.20 W/m2
11:24 21.4 °C 13.3 °C 1021.6 hPa ENE 2.9 km/h 4.0 km/h 60% 0.0 mm 239.35 W/m2
11:29 21.4 °C 12.6 °C 1021.2 hPa Calm     57% 0.0 mm 250.01 W/m2
11:35 21.4 °C 13.1 °C 1021.2 hPa NE 1.4 km/h 4.0 km/h 59% 0.0 mm 271.61 W/m2
11:40 21.3 °C 12.5 °C 1021.2 hPa Calm     57% 0.0 mm 296.75 W/m2
11:45 21.4 °C 11.5 °C 1021.2 hPa WNW 1.8 km/h 4.0 km/h 53% 0.0 mm 338.73 W/m2
11:50 21.5 °C 11.5 °C 1020.9 hPa WNW 0.3 km/h 4.0 km/h 53% 0.0 mm 350.83 W/m2
11:55 21.8 °C 12.7 °C 1020.9 hPa Calm     56% 0.0 mm 207.59 W/m2
12:00 22.1 °C 12.4 °C 1020.5 hPa NNE 0.3 km/h 4.0 km/h 54% 0.0 mm 216.72 W/m2
12:05 22.4 °C 11.5 °C 1020.5 hPa North 0.3 km/h 4.0 km/h 50% 0.0 mm 285.28 W/m2
12:10 22.9 °C 12.0 °C 1020.5 hPa NW 3.2 km/h 4.0 km/h 50% 0.0 mm 274.08 W/m2
12:15 23.1 °C 11.8 °C 1020.2 hPa ENE 0.6 km/h 4.0 km/h 49% 0.0 mm 275.38 W/m2
12:20 23.1 °C 12.1 °C 1020.2 hPa NW 3.2 km/h 4.0 km/h 50% 0.0 mm 285.51 W/m2
12:25 23.3 °C 12.9 °C 1020.2 hPa WNW 1.4 km/h 4.0 km/h 52% 0.0 mm 266.07 W/m2
12:30 23.4 °C 13.0 °C 1020.2 hPa NE 0.3 km/h 4.0 km/h 52% 0.0 mm 284.74 W/m2
12:35 23.4 °C 13.3 °C 1019.9 hPa West 1.8 km/h 4.0 km/h 53% 0.0 mm 116.62 W/m2
12:40 23.0 °C 14.1 °C 1020.2 hPa WNW 0.3 km/h 4.0 km/h 57% 0.0 mm 305.53 W/m2
Franklin Riverside, Huon Valley, TAS
Compliments of Weather Underground - 2 mb